PHKO METAR and TAF weather

Enter ICAO airport designator
Station Type Date Time Source
PHKO METAR 2021/10/20 06:53 UTC NOAA

PHKO 200653Z 08003KT 10SM FEW050 26/19 A3004 RMK AO2 SLP171 T02560189


Station Type Date Time Source
PHKO Decoded METAR 2021/10/20 06:53 UTC NOAA

KONA INTERNATIONAL AIRPORT, HI, United States (PHKO) 19-44N 156-03W 27M
Oct 20, 2021 - 02:53 AM EDT / 2021.10.20 0653 UTC
Wind: from the E (080 degrees) at 3 MPH (3 KT):0
Visibility: 10 mile(s):0
Sky conditions: mostly clear
Temperature: 78.1 F (25.6 C)
Dew Point: 66.0 F (18.9 C)
Relative Humidity: 66%
Pressure (altimeter): 30.04 in. Hg (1017 hPa)
ob: PHKO 200653Z 08003KT 10SM FEW050 26/19 A3004 RMK AO2 SLP171 T02560189
cycle: 7

Station Type Date Time Source
PHKO TAF 2021/10/20 06:22 UTC NOAA

TAF PHKO 200520Z 2006/2106 15006KT P6SM VCSH SCT025 BKN050
FM200800 10006KT P6SM VCSH FEW025 SCT050
FM202000 24009KT P6SM FEW050
FM210200 22008KT P6SM FEW025 BKN050

Example: see airport list